sensor_id;sensor_type;location;lat;lon;timestamp;temperature;humidity
7362;DHT22;3721;44.490;11.220;2022-09-16T00:01:34;24.10;82.20
7362;DHT22;3721;44.490;11.220;2022-09-16T00:04:00;24.00;82.70
7362;DHT22;3721;44.490;11.220;2022-09-16T00:06:28;24.00;82.10
7362;DHT22;3721;44.490;11.220;2022-09-16T00:08:59;24.00;82.60
7362;DHT22;3721;44.490;11.220;2022-09-16T00:11:28;24.00;82.60
7362;DHT22;3721;44.490;11.220;2022-09-16T00:13:58;24.00;83.30
7362;DHT22;3721;44.490;11.220;2022-09-16T00:16:26;24.00;83.40
7362;DHT22;3721;44.490;11.220;2022-09-16T00:18:56;23.90;83.20
7362;DHT22;3721;44.490;11.220;2022-09-16T00:21:23;23.90;83.00
7362;DHT22;3721;44.490;11.220;2022-09-16T00:23:49;23.90;82.80
7362;DHT22;3721;44.490;11.220;2022-09-16T00:26:15;24.00;82.50
7362;DHT22;3721;44.490;11.220;2022-09-16T00:28:41;24.00;82.30
7362;DHT22;3721;44.490;11.220;2022-09-16T00:31:07;24.00;82.30
7362;DHT22;3721;44.490;11.220;2022-09-16T00:33:33;24.00;82.10
7362;DHT22;3721;44.490;11.220;2022-09-16T00:36:14;24.00;81.60
7362;DHT22;3721;44.490;11.220;2022-09-16T00:38:40;24.00;81.40
7362;DHT22;3721;44.490;11.220;2022-09-16T00:41:09;24.00;81.40
7362;DHT22;3721;44.490;11.220;2022-09-16T00:43:57;23.90;81.50
7362;DHT22;3721;44.490;11.220;2022-09-16T00:46:43;23.80;81.70
7362;DHT22;3721;44.490;11.220;2022-09-16T00:49:29;23.80;81.90
7362;DHT22;3721;44.490;11.220;2022-09-16T00:51:59;23.80;82.20
7362;DHT22;3721;44.490;11.220;2022-09-16T00:54:26;23.80;82.30
7362;DHT22;3721;44.490;11.220;2022-09-16T00:56:54;23.70;82.80
7362;DHT22;3721;44.490;11.220;2022-09-16T00:59:31;23.70;83.40
7362;DHT22;3721;44.490;11.220;2022-09-16T01:02:01;23.80;83.80
7362;DHT22;3721;44.490;11.220;2022-09-16T01:04:33;23.70;83.50
7362;DHT22;3721;44.490;11.220;2022-09-16T01:07:00;23.70;83.20
7362;DHT22;3721;44.490;11.220;2022-09-16T01:09:27;23.70;83.70
7362;DHT22;3721;44.490;11.220;2022-09-16T01:11:54;23.70;83.70
7362;DHT22;3721;44.490;11.220;2022-09-16T01:14:20;23.70;83.60
7362;DHT22;3721;44.490;11.220;2022-09-16T01:30:42;23.60;84.70
7362;DHT22;3721;44.490;11.220;2022-09-16T01:33:24;23.60;84.60
7362;DHT22;3721;44.490;11.220;2022-09-16T01:42:04;23.60;85.00
7362;DHT22;3721;44.490;11.220;2022-09-16T01:45:07;23.60;85.00
7362;DHT22;3721;44.490;11.220;2022-09-16T01:48:14;23.60;85.20
7362;DHT22;3721;44.490;11.220;2022-09-16T01:50:48;23.50;85.30
7362;DHT22;3721;44.490;11.220;2022-09-16T01:53:38;23.50;85.50
7362;DHT22;3721;44.490;11.220;2022-09-16T01:59:05;23.40;85.30
7362;DHT22;3721;44.490;11.220;2022-09-16T02:02:03;23.40;85.00
7362;DHT22;3721;44.490;11.220;2022-09-16T02:04:37;23.30;84.80
7362;DHT22;3721;44.490;11.220;2022-09-16T02:07:06;23.30;84.60
7362;DHT22;3721;44.490;11.220;2022-09-16T02:10:02;23.30;84.60
7362;DHT22;3721;44.490;11.220;2022-09-16T02:12:34;23.30;84.60
7362;DHT22;3721;44.490;11.220;2022-09-16T02:15:05;23.30;84.80
7362;DHT22;3721;44.490;11.220;2022-09-16T02:17:36;23.30;85.20
7362;DHT22;3721;44.490;11.220;2022-09-16T02:20:13;23.30;85.40
7362;DHT22;3721;44.490;11.220;2022-09-16T02:22:43;23.20;85.40
7362;DHT22;3721;44.490;11.220;2022-09-16T02:25:10;23.20;85.40
7362;DHT22;3721;44.490;11.220;2022-09-16T02:27:39;23.10;85.30
7362;DHT22;3721;44.490;11.220;2022-09-16T02:30:25;23.00;85.40
7362;DHT22;3721;44.490;11.220;2022-09-16T02:32:55;22.90;85.40
7362;DHT22;3721;44.490;11.220;2022-09-16T02:35:24;23.00;85.40
7362;DHT22;3721;44.490;11.220;2022-09-16T02:38:02;22.90;85.40
7362;DHT22;3721;44.490;11.220;2022-09-16T02:40:36;22.90;85.50
7362;DHT22;3721;44.490;11.220;2022-09-16T02:43:05;22.90;85.70
7362;DHT22;3721;44.490;11.220;2022-09-16T02:45:48;22.90;85.90
7362;DHT22;3721;44.490;11.220;2022-09-16T02:51:22;22.80;85.70
7362;DHT22;3721;44.490;11.220;2022-09-16T02:53:59;22.80;85.70
7362;DHT22;3721;44.490;11.220;2022-09-16T02:56:35;22.80;85.70
7362;DHT22;3721;44.490;11.220;2022-09-16T02:59:03;22.80;85.90
7362;DHT22;3721;44.490;11.220;2022-09-16T03:01:32;22.80;85.90
7362;DHT22;3721;44.490;11.220;2022-09-16T03:03:58;22.80;85.90
7362;DHT22;3721;44.490;11.220;2022-09-16T03:06:26;22.80;85.80
7362;DHT22;3721;44.490;11.220;2022-09-16T03:08:53;22.70;85.70
7362;DHT22;3721;44.490;11.220;2022-09-16T03:19:46;22.60;86.60
7362;DHT22;3721;44.490;11.220;2022-09-16T03:25:08;22.60;86.70
7362;DHT22;3721;44.490;11.220;2022-09-16T03:27:47;22.50;86.90
7362;DHT22;3721;44.490;11.220;2022-09-16T03:30:15;22.50;87.10
7362;DHT22;3721;44.490;11.220;2022-09-16T03:32:59;22.50;86.90
7362;DHT22;3721;44.490;11.220;2022-09-16T03:35:33;22.40;87.10
7362;DHT22;3721;44.490;11.220;2022-09-16T03:38:05;22.40;87.40
7362;DHT22;3721;44.490;11.220;2022-09-16T03:40:33;22.40;87.70
7362;DHT22;3721;44.490;11.220;2022-09-16T03:42:59;22.40;87.80
7362;DHT22;3721;44.490;11.220;2022-09-16T03:45:25;22.40;87.90
7362;DHT22;3721;44.490;11.220;2022-09-16T03:47:52;22.40;87.90
7362;DHT22;3721;44.490;11.220;2022-09-16T03:50:20;22.40;88.00
7362;DHT22;3721;44.490;11.220;2022-09-16T03:52:46;22.50;88.30
7362;DHT22;3721;44.490;11.220;2022-09-16T03:55:12;22.50;88.30
7362;DHT22;3721;44.490;11.220;2022-09-16T03:57:38;22.50;88.40
7362;DHT22;3721;44.490;11.220;2022-09-16T04:00:06;22.50;88.30
7362;DHT22;3721;44.490;11.220;2022-09-16T04:02:32;22.50;88.30
7362;DHT22;3721;44.490;11.220;2022-09-16T04:04:58;22.50;88.30
7362;DHT22;3721;44.490;11.220;2022-09-16T04:07:24;22.50;88.20
7362;DHT22;3721;44.490;11.220;2022-09-16T04:09:50;22.50;88.30
7362;DHT22;3721;44.490;11.220;2022-09-16T04:12:15;22.50;88.50
7362;DHT22;3721;44.490;11.220;2022-09-16T04:14:41;22.50;88.50
7362;DHT22;3721;44.490;11.220;2022-09-16T04:17:07;22.50;88.70
7362;DHT22;3721;44.490;11.220;2022-09-16T04:19:33;22.50;88.60
7362;DHT22;3721;44.490;11.220;2022-09-16T04:21:58;22.50;88.10
7362;DHT22;3721;44.490;11.220;2022-09-16T04:24:24;22.50;88.90
7362;DHT22;3721;44.490;11.220;2022-09-16T04:26:50;22.50;88.80
7362;DHT22;3721;44.490;11.220;2022-09-16T04:29:15;22.40;88.20
7362;DHT22;3721;44.490;11.220;2022-09-16T04:31:42;22.40;88.20
7362;DHT22;3721;44.490;11.220;2022-09-16T04:34:08;22.40;88.70
7362;DHT22;3721;44.490;11.220;2022-09-16T04:36:36;22.40;88.30
7362;DHT22;3721;44.490;11.220;2022-09-16T04:39:03;22.40;88.30
7362;DHT22;3721;44.490;11.220;2022-09-16T04:41:28;22.30;88.30
7362;DHT22;3721;44.490;11.220;2022-09-16T04:43:56;22.30;88.60
7362;DHT22;3721;44.490;11.220;2022-09-16T04:46:23;22.30;89.00
7362;DHT22;3721;44.490;11.220;2022-09-16T04:48:50;22.30;89.40
7362;DHT22;3721;44.490;11.220;2022-09-16T04:51:17;22.30;89.40
7362;DHT22;3721;44.490;11.220;2022-09-16T04:53:44;22.30;89.10
7362;DHT22;3721;44.490;11.220;2022-09-16T04:56:12;22.30;89.10
7362;DHT22;3721;44.490;11.220;2022-09-16T04:58:43;22.30;89.20
7362;DHT22;3721;44.490;11.220;2022-09-16T05:01:11;22.30;89.30
7362;DHT22;3721;44.490;11.220;2022-09-16T05:03:39;22.20;89.50
7362;DHT22;3721;44.490;11.220;2022-09-16T05:06:07;22.20;89.70
7362;DHT22;3721;44.490;11.220;2022-09-16T05:08:33;22.20;89.80
7362;DHT22;3721;44.490;11.220;2022-09-16T05:11:05;22.20;90.00
7362;DHT22;3721;44.490;11.220;2022-09-16T05:13:31;22.20;90.10
7362;DHT22;3721;44.490;11.220;2022-09-16T05:16:06;22.20;90.10
7362;DHT22;3721;44.490;11.220;2022-09-16T05:18:33;22.20;90.20
7362;DHT22;3721;44.490;11.220;2022-09-16T05:20:59;22.20;90.30
7362;DHT22;3721;44.490;11.220;2022-09-16T05:23:26;22.20;90.20
7362;DHT22;3721;44.490;11.220;2022-09-16T05:25:52;22.10;90.20
7362;DHT22;3721;44.490;11.220;2022-09-16T05:28:19;22.20;90.30
7362;DHT22;3721;44.490;11.220;2022-09-16T05:30:45;22.20;90.40
7362;DHT22;3721;44.490;11.220;2022-09-16T05:33:10;22.20;90.50
7362;DHT22;3721;44.490;11.220;2022-09-16T05:35:36;22.30;90.60
7362;DHT22;3721;44.490;11.220;2022-09-16T05:38:02;22.20;90.60
7362;DHT22;3721;44.490;11.220;2022-09-16T05:40:28;22.30;90.70
7362;DHT22;3721;44.490;11.220;2022-09-16T05:42:54;22.30;90.80
7362;DHT22;3721;44.490;11.220;2022-09-16T05:45:20;22.40;90.80
7362;DHT22;3721;44.490;11.220;2022-09-16T05:47:49;22.40;90.90
7362;DHT22;3721;44.490;11.220;2022-09-16T05:50:15;22.50;90.90
7362;DHT22;3721;44.490;11.220;2022-09-16T05:52:41;22.50;90.90
7362;DHT22;3721;44.490;11.220;2022-09-16T05:57:33;22.60;91.00
7362;DHT22;3721;44.490;11.220;2022-09-16T05:59:59;22.60;91.30
7362;DHT22;3721;44.490;11.220;2022-09-16T06:02:25;22.70;91.20
7362;DHT22;3721;44.490;11.220;2022-09-16T06:04:51;22.80;91.30
7362;DHT22;3721;44.490;11.220;2022-09-16T06:07:17;23.00;91.40
7362;DHT22;3721;44.490;11.220;2022-09-16T06:09:43;23.10;91.30
7362;DHT22;3721;44.490;11.220;2022-09-16T06:12:09;23.20;91.30
7362;DHT22;3721;44.490;11.220;2022-09-16T06:14:35;23.30;91.30
7362;DHT22;3721;44.490;11.220;2022-09-16T06:17:01;23.30;91.60
7362;DHT22;3721;44.490;11.220;2022-09-16T06:19:27;23.40;91.50
7362;DHT22;3721;44.490;11.220;2022-09-16T06:21:53;23.50;91.50
7362;DHT22;3721;44.490;11.220;2022-09-16T06:24:19;23.50;91.80
7362;DHT22;3721;44.490;11.220;2022-09-16T06:26:46;23.70;91.50
7362;DHT22;3721;44.490;11.220;2022-09-16T06:29:13;23.70;91.90
7362;DHT22;3721;44.490;11.220;2022-09-16T06:31:40;23.90;92.00
7362;DHT22;3721;44.490;11.220;2022-09-16T06:34:06;24.10;92.10
7362;DHT22;3721;44.490;11.220;2022-09-16T06:36:35;24.30;92.10
7362;DHT22;3721;44.490;11.220;2022-09-16T06:39:02;24.50;92.30
7362;DHT22;3721;44.490;11.220;2022-09-16T06:41:30;24.60;92.40
7362;DHT22;3721;44.490;11.220;2022-09-16T06:43:58;24.90;92.20
7362;DHT22;3721;44.490;11.220;2022-09-16T06:46:26;25.00;92.20
7362;DHT22;3721;44.490;11.220;2022-09-16T06:48:55;25.20;91.90
7362;DHT22;3721;44.490;11.220;2022-09-16T06:51:26;25.40;91.60
7362;DHT22;3721;44.490;11.220;2022-09-16T06:53:53;25.40;91.30
7362;DHT22;3721;44.490;11.220;2022-09-16T06:56:21;25.50;91.20
7362;DHT22;3721;44.490;11.220;2022-09-16T06:58:49;25.60;91.00
7362;DHT22;3721;44.490;11.220;2022-09-16T07:01:21;25.60;90.80
7362;DHT22;3721;44.490;11.220;2022-09-16T07:03:49;25.70;90.60
7362;DHT22;3721;44.490;11.220;2022-09-16T07:06:17;26.90;90.70
7362;DHT22;3721;44.490;11.220;2022-09-16T07:08:43;25.80;90.20
7362;DHT22;3721;44.490;11.220;2022-09-16T07:11:12;25.90;90.10
7362;DHT22;3721;44.490;11.220;2022-09-16T07:13:39;26.00;89.90
7362;DHT22;3721;44.490;11.220;2022-09-16T07:16:07;26.00;89.50
7362;DHT22;3721;44.490;11.220;2022-09-16T07:18:33;26.10;89.20
7362;DHT22;3721;44.490;11.220;2022-09-16T07:21:16;26.20;88.90
7362;DHT22;3721;44.490;11.220;2022-09-16T07:23:43;26.20;88.50
7362;DHT22;3721;44.490;11.220;2022-09-16T07:26:11;26.20;88.40
7362;DHT22;3721;44.490;11.220;2022-09-16T07:28:38;26.20;88.20
7362;DHT22;3721;44.490;11.220;2022-09-16T07:31:09;26.30;88.20
7362;DHT22;3721;44.490;11.220;2022-09-16T07:33:40;26.30;88.30
7362;DHT22;3721;44.490;11.220;2022-09-16T07:36:07;26.40;88.40
7362;DHT22;3721;44.490;11.220;2022-09-16T07:38:34;26.40;88.50
7362;DHT22;3721;44.490;11.220;2022-09-16T07:41:08;26.50;88.40
7362;DHT22;3721;44.490;11.220;2022-09-16T07:43:36;26.60;88.40
7362;DHT22;3721;44.490;11.220;2022-09-16T07:46:02;26.70;88.40
7362;DHT22;3721;44.490;11.220;2022-09-16T07:48:29;26.80;88.30
7362;DHT22;3721;44.490;11.220;2022-09-16T07:50:57;26.80;87.90
7362;DHT22;3721;44.490;11.220;2022-09-16T07:53:24;26.90;87.90
7362;DHT22;3721;44.490;11.220;2022-09-16T07:55:52;27.00;87.70
7362;DHT22;3721;44.490;11.220;2022-09-16T07:58:18;27.10;87.60
7362;DHT22;3721;44.490;11.220;2022-09-16T08:00:44;27.10;87.50
7362;DHT22;3721;44.490;11.220;2022-09-16T08:03:10;27.20;87.40
7362;DHT22;3721;44.490;11.220;2022-09-16T08:05:36;27.30;87.10
7362;DHT22;3721;44.490;11.220;2022-09-16T08:08:02;27.40;87.00
7362;DHT22;3721;44.490;11.220;2022-09-16T08:10:27;27.40;86.60
7362;DHT22;3721;44.490;11.220;2022-09-16T08:12:53;27.50;85.80
7362;DHT22;3721;44.490;11.220;2022-09-16T08:15:19;27.50;85.30
7362;DHT22;3721;44.490;11.220;2022-09-16T08:17:45;27.50;85.20
7362;DHT22;3721;44.490;11.220;2022-09-16T08:22:37;27.60;83.70
7362;DHT22;3721;44.490;11.220;2022-09-16T08:25:02;27.70;84.00
7362;DHT22;3721;44.490;11.220;2022-09-16T08:27:28;27.70;83.30
7362;DHT22;3721;44.490;11.220;2022-09-16T08:29:54;27.80;82.90
7362;DHT22;3721;44.490;11.220;2022-09-16T08:32:20;27.80;82.70
7362;DHT22;3721;44.490;11.220;2022-09-16T08:34:45;27.90;82.50
7362;DHT22;3721;44.490;11.220;2022-09-16T08:37:12;27.90;82.50
7362;DHT22;3721;44.490;11.220;2022-09-16T08:39:37;28.00;82.10
7362;DHT22;3721;44.490;11.220;2022-09-16T08:42:35;28.00;81.90
7362;DHT22;3721;44.490;11.220;2022-09-16T08:50:40;28.10;81.60
7362;DHT22;3721;44.490;11.220;2022-09-16T08:53:23;28.10;81.90
7362;DHT22;3721;44.490;11.220;2022-09-16T08:55:51;28.20;82.20
7362;DHT22;3721;44.490;11.220;2022-09-16T08:58:40;28.20;82.10
7362;DHT22;3721;44.490;11.220;2022-09-16T09:04:28;28.30;81.90
7362;DHT22;3721;44.490;11.220;2022-09-16T09:26:23;28.50;80.60
7362;DHT22;3721;44.490;11.220;2022-09-16T09:29:13;28.60;80.10
7362;DHT22;3721;44.490;11.220;2022-09-16T09:38:07;28.70;79.30
7362;DHT22;3721;44.490;11.220;2022-09-16T09:46:43;28.80;78.60
7362;DHT22;3721;44.490;11.220;2022-09-16T09:49:17;28.80;78.20
7362;DHT22;3721;44.490;11.220;2022-09-16T09:57:01;28.90;78.20
7362;DHT22;3721;44.490;11.220;2022-09-16T10:02:15;29.00;78.20
7362;DHT22;3721;44.490;11.220;2022-09-16T10:04:41;29.00;78.00
7362;DHT22;3721;44.490;11.220;2022-09-16T10:07:09;29.00;77.80
7362;DHT22;3721;44.490;11.220;2022-09-16T10:09:36;29.10;78.00
7362;DHT22;3721;44.490;11.220;2022-09-16T10:12:02;29.10;77.50
7362;DHT22;3721;44.490;11.220;2022-09-16T10:14:30;29.10;76.70
7362;DHT22;3721;44.490;11.220;2022-09-16T10:17:00;29.10;76.70
7362;DHT22;3721;44.490;11.220;2022-09-16T10:19:29;29.20;77.10
7362;DHT22;3721;44.490;11.220;2022-09-16T10:22:20;29.20;76.90
7362;DHT22;3721;44.490;11.220;2022-09-16T10:24:56;29.20;76.80
7362;DHT22;3721;44.490;11.220;2022-09-16T10:30:14;29.20;76.90
7362;DHT22;3721;44.490;11.220;2022-09-16T10:35:23;29.30;76.60
7362;DHT22;3721;44.490;11.220;2022-09-16T10:37:53;29.30;77.00
7362;DHT22;3721;44.490;11.220;2022-09-16T10:40:20;29.30;76.20
7362;DHT22;3721;44.490;11.220;2022-09-16T10:42:49;29.30;75.60
7362;DHT22;3721;44.490;11.220;2022-09-16T10:45:25;29.30;75.70
7362;DHT22;3721;44.490;11.220;2022-09-16T10:47:58;29.30;75.90
7362;DHT22;3721;44.490;11.220;2022-09-16T10:50:25;29.30;75.90
7362;DHT22;3721;44.490;11.220;2022-09-16T10:52:52;29.30;75.60
7362;DHT22;3721;44.490;11.220;2022-09-16T10:57:44;29.40;75.90
7362;DHT22;3721;44.490;11.220;2022-09-16T11:16:54;29.50;75.00
7362;DHT22;3721;44.490;11.220;2022-09-16T11:27:40;29.50;73.80
7362;DHT22;3721;44.490;11.220;2022-09-16T11:30:19;29.50;74.00
7362;DHT22;3721;44.490;11.220;2022-09-16T11:38:25;29.60;73.80
7362;DHT22;3721;44.490;11.220;2022-09-16T11:41:19;29.70;74.10
7362;DHT22;3721;44.490;11.220;2022-09-16T11:43:56;29.60;73.30
7362;DHT22;3721;44.490;11.220;2022-09-16T11:55:19;29.60;73.90
7362;DHT22;3721;44.490;11.220;2022-09-16T11:57:57;29.60;73.70
7362;DHT22;3721;44.490;11.220;2022-09-16T12:00:24;29.50;73.30
7362;DHT22;3721;44.490;11.220;2022-09-16T12:03:27;29.50;73.50
7362;DHT22;3721;44.490;11.220;2022-09-16T12:05:59;29.40;73.40
7362;DHT22;3721;44.490;11.220;2022-09-16T12:11:19;29.50;73.60
7362;DHT22;3721;44.490;11.220;2022-09-16T12:13:57;29.50;73.50
7362;DHT22;3721;44.490;11.220;2022-09-16T12:16:33;29.50;73.30
7362;DHT22;3721;44.490;11.220;2022-09-16T12:19:08;29.50;73.40
7362;DHT22;3721;44.490;11.220;2022-09-16T12:21:41;29.40;73.00
7362;DHT22;3721;44.490;11.220;2022-09-16T12:24:14;29.40;73.40
7362;DHT22;3721;44.490;11.220;2022-09-16T12:32:53;29.50;73.10
7362;DHT22;3721;44.490;11.220;2022-09-16T12:35:26;29.50;73.20
7362;DHT22;3721;44.490;11.220;2022-09-16T12:37:53;29.50;73.00
7362;DHT22;3721;44.490;11.220;2022-09-16T12:55:01;29.70;71.80
7362;DHT22;3721;44.490;11.220;2022-09-16T13:00:19;29.80;70.40
7362;DHT22;3721;44.490;11.220;2022-09-16T13:08:06;30.10;70.00
7362;DHT22;3721;44.490;11.220;2022-09-16T13:10:41;30.10;69.60
7362;DHT22;3721;44.490;11.220;2022-09-16T13:13:07;30.20;69.20
7362;DHT22;3721;44.490;11.220;2022-09-16T13:15:42;30.30;68.80
7362;DHT22;3721;44.490;11.220;2022-09-16T13:20:56;30.40;67.80
7362;DHT22;3721;44.490;11.220;2022-09-16T13:23:28;30.40;67.90
7362;DHT22;3721;44.490;11.220;2022-09-16T13:26:01;30.40;67.20
7362;DHT22;3721;44.490;11.220;2022-09-16T13:28:40;30.40;66.90
7362;DHT22;3721;44.490;11.220;2022-09-16T13:33:48;30.50;66.20
7362;DHT22;3721;44.490;11.220;2022-09-16T13:38:59;30.50;65.50
7362;DHT22;3721;44.490;11.220;2022-09-16T13:41:37;30.50;65.20
7362;DHT22;3721;44.490;11.220;2022-09-16T13:44:27;30.50;63.90
7362;DHT22;3721;44.490;11.220;2022-09-16T13:49:55;30.60;62.60
7362;DHT22;3721;44.490;11.220;2022-09-16T13:52:32;30.70;63.00
7362;DHT22;3721;44.490;11.220;2022-09-16T13:55:01;30.70;63.20
7362;DHT22;3721;44.490;11.220;2022-09-16T14:00:23;30.70;63.00
7362;DHT22;3721;44.490;11.220;2022-09-16T14:13:29;30.80;62.80
7362;DHT22;3721;44.490;11.220;2022-09-16T14:15:57;30.70;63.10
7362;DHT22;3721;44.490;11.220;2022-09-16T14:18:29;30.70;62.80
7362;DHT22;3721;44.490;11.220;2022-09-16T14:23:24;30.60;63.10
7362;DHT22;3721;44.490;11.220;2022-09-16T14:25:50;30.60;63.40
7362;DHT22;3721;44.490;11.220;2022-09-16T14:28:17;30.50;63.10
7362;DHT22;3721;44.490;11.220;2022-09-16T14:33:16;30.40;63.20
7362;DHT22;3721;44.490;11.220;2022-09-16T14:35:46;30.40;63.10
7362;DHT22;3721;44.490;11.220;2022-09-16T14:38:15;30.40;62.30
7362;DHT22;3721;44.490;11.220;2022-09-16T14:40:42;30.30;62.20
7362;DHT22;3721;44.490;11.220;2022-09-16T14:43:17;30.30;61.90
7362;DHT22;3721;44.490;11.220;2022-09-16T14:45:47;30.20;61.10
7362;DHT22;3721;44.490;11.220;2022-09-16T14:48:15;30.20;61.70
7362;DHT22;3721;44.490;11.220;2022-09-16T14:50:47;30.20;61.60
7362;DHT22;3721;44.490;11.220;2022-09-16T14:55:51;30.30;61.40
7362;DHT22;3721;44.490;11.220;2022-09-16T14:58:18;30.20;62.10
7362;DHT22;3721;44.490;11.220;2022-09-16T15:00:58;30.20;62.30
7362;DHT22;3721;44.490;11.220;2022-09-16T15:06:15;30.10;61.80
7362;DHT22;3721;44.490;11.220;2022-09-16T15:08:48;30.10;61.80
7362;DHT22;3721;44.490;11.220;2022-09-16T15:11:20;30.10;61.80
7362;DHT22;3721;44.490;11.220;2022-09-16T15:13:47;30.10;62.30
7362;DHT22;3721;44.490;11.220;2022-09-16T15:16:18;30.10;62.60
7362;DHT22;3721;44.490;11.220;2022-09-16T15:18:59;30.10;62.10
7362;DHT22;3721;44.490;11.220;2022-09-16T15:21:31;30.10;62.00
7362;DHT22;3721;44.490;11.220;2022-09-16T15:24:00;30.00;61.90
7362;DHT22;3721;44.490;11.220;2022-09-16T15:26:42;30.00;62.30
7362;DHT22;3721;44.490;11.220;2022-09-16T15:31:45;30.00;62.70
7362;DHT22;3721;44.490;11.220;2022-09-16T15:36:45;30.00;63.30
7362;DHT22;3721;44.490;11.220;2022-09-16T15:41:49;30.00;63.30
7362;DHT22;3721;44.490;11.220;2022-09-16T15:44:24;29.90;63.70
7362;DHT22;3721;44.490;11.220;2022-09-16T15:46:52;29.90;63.90
7362;DHT22;3721;44.490;11.220;2022-09-16T15:49:18;29.90;64.20
7362;DHT22;3721;44.490;11.220;2022-09-16T15:51:49;29.90;64.30
7362;DHT22;3721;44.490;11.220;2022-09-16T15:57:08;29.80;64.30
7362;DHT22;3721;44.490;11.220;2022-09-16T15:59:40;29.80;64.80
7362;DHT22;3721;44.490;11.220;2022-09-16T16:04:52;29.70;65.20
7362;DHT22;3721;44.490;11.220;2022-09-16T16:07:38;29.60;64.80
7362;DHT22;3721;44.490;11.220;2022-09-16T16:10:16;29.60;64.70
7362;DHT22;3721;44.490;11.220;2022-09-16T16:12:43;29.60;64.80
7362;DHT22;3721;44.490;11.220;2022-09-16T16:15:25;29.50;64.90
7362;DHT22;3721;44.490;11.220;2022-09-16T16:17:53;29.50;65.00
7362;DHT22;3721;44.490;11.220;2022-09-16T16:20:19;29.50;65.00
7362;DHT22;3721;44.490;11.220;2022-09-16T16:22:45;29.40;65.10
7362;DHT22;3721;44.490;11.220;2022-09-16T16:25:12;29.40;65.40
7362;DHT22;3721;44.490;11.220;2022-09-16T16:27:38;29.30;65.50
7362;DHT22;3721;44.490;11.220;2022-09-16T16:30:05;29.30;65.70
7362;DHT22;3721;44.490;11.220;2022-09-16T16:32:31;29.30;65.70
7362;DHT22;3721;44.490;11.220;2022-09-16T16:34:57;29.20;65.70
7362;DHT22;3721;44.490;11.220;2022-09-16T16:37:24;29.20;66.50
7362;DHT22;3721;44.490;11.220;2022-09-16T16:39:50;29.10;66.40
7362;DHT22;3721;44.490;11.220;2022-09-16T16:42:16;29.10;66.30
7362;DHT22;3721;44.490;11.220;2022-09-16T16:44:42;29.00;66.30
7362;DHT22;3721;44.490;11.220;2022-09-16T16:47:08;29.00;66.80
7362;DHT22;3721;44.490;11.220;2022-09-16T16:49:35;28.90;67.30
7362;DHT22;3721;44.490;11.220;2022-09-16T16:52:02;28.90;67.10
7362;DHT22;3721;44.490;11.220;2022-09-16T16:54:28;28.90;66.80
7362;DHT22;3721;44.490;11.220;2022-09-16T16:56:54;28.80;66.80
7362;DHT22;3721;44.490;11.220;2022-09-16T16:59:21;28.80;66.70
7362;DHT22;3721;44.490;11.220;2022-09-16T17:01:50;28.70;66.60
7362;DHT22;3721;44.490;11.220;2022-09-16T17:04:16;28.60;66.50
7362;DHT22;3721;44.490;11.220;2022-09-16T17:06:42;28.60;66.50
7362;DHT22;3721;44.490;11.220;2022-09-16T17:09:10;28.50;66.70
7362;DHT22;3721;44.490;11.220;2022-09-16T17:11:37;28.40;66.90
7362;DHT22;3721;44.490;11.220;2022-09-16T17:14:13;28.40;67.00
7362;DHT22;3721;44.490;11.220;2022-09-16T17:16:40;28.30;67.00
7362;DHT22;3721;44.490;11.220;2022-09-16T17:19:06;28.20;67.20
7362;DHT22;3721;44.490;11.220;2022-09-16T17:21:33;28.10;67.50
7362;DHT22;3721;44.490;11.220;2022-09-16T17:23:59;28.10;67.90
7362;DHT22;3721;44.490;11.220;2022-09-16T17:26:25;28.00;68.20
7362;DHT22;3721;44.490;11.220;2022-09-16T17:28:52;28.00;68.60
7362;DHT22;3721;44.490;11.220;2022-09-16T17:31:21;27.90;68.70
7362;DHT22;3721;44.490;11.220;2022-09-16T17:33:51;27.90;68.70
7362;DHT22;3721;44.490;11.220;2022-09-16T17:36:18;27.80;68.70
7362;DHT22;3721;44.490;11.220;2022-09-16T17:38:54;27.80;68.70
7362;DHT22;3721;44.490;11.220;2022-09-16T17:41:20;27.80;69.00
7362;DHT22;3721;44.490;11.220;2022-09-16T17:43:47;27.70;69.00
7362;DHT22;3721;44.490;11.220;2022-09-16T17:46:15;27.70;69.20
7362;DHT22;3721;44.490;11.220;2022-09-16T17:48:42;27.60;69.20
7362;DHT22;3721;44.490;11.220;2022-09-16T17:51:09;27.60;69.40
7362;DHT22;3721;44.490;11.220;2022-09-16T17:53:36;27.50;69.50
7362;DHT22;3721;44.490;11.220;2022-09-16T17:56:09;27.50;69.60
7362;DHT22;3721;44.490;11.220;2022-09-16T17:58:36;27.50;69.80
7362;DHT22;3721;44.490;11.220;2022-09-16T18:01:14;27.40;69.90
7362;DHT22;3721;44.490;11.220;2022-09-16T18:03:42;27.40;70.30
7362;DHT22;3721;44.490;11.220;2022-09-16T18:06:11;27.30;70.50
7362;DHT22;3721;44.490;11.220;2022-09-16T18:08:39;27.30;70.70
7362;DHT22;3721;44.490;11.220;2022-09-16T18:11:06;27.20;70.80
7362;DHT22;3721;44.490;11.220;2022-09-16T18:13:33;27.20;70.90
7362;DHT22;3721;44.490;11.220;2022-09-16T18:16:04;27.20;70.90
7362;DHT22;3721;44.490;11.220;2022-09-16T18:18:30;27.20;70.80
7362;DHT22;3721;44.490;11.220;2022-09-16T18:20:56;27.20;71.20
7362;DHT22;3721;44.490;11.220;2022-09-16T18:23:22;27.10;70.90
7362;DHT22;3721;44.490;11.220;2022-09-16T18:25:48;27.10;70.80
7362;DHT22;3721;44.490;11.220;2022-09-16T18:28:14;27.10;70.90
7362;DHT22;3721;44.490;11.220;2022-09-16T18:30:41;27.10;71.00
7362;DHT22;3721;44.490;11.220;2022-09-16T18:33:08;27.10;71.20
7362;DHT22;3721;44.490;11.220;2022-09-16T18:35:35;27.10;71.30
7362;DHT22;3721;44.490;11.220;2022-09-16T18:38:09;27.00;71.40
7362;DHT22;3721;44.490;11.220;2022-09-16T18:40:37;27.00;71.50
7362;DHT22;3721;44.490;11.220;2022-09-16T18:43:03;26.90;71.40
7362;DHT22;3721;44.490;11.220;2022-09-16T18:45:28;26.90;71.70
7362;DHT22;3721;44.490;11.220;2022-09-16T18:47:56;26.90;71.50
7362;DHT22;3721;44.490;11.220;2022-09-16T18:50:21;26.90;71.50
7362;DHT22;3721;44.490;11.220;2022-09-16T18:52:47;26.80;71.50
7362;DHT22;3721;44.490;11.220;2022-09-16T18:55:13;26.80;71.60
7362;DHT22;3721;44.490;11.220;2022-09-16T18:57:39;26.80;71.60
7362;DHT22;3721;44.490;11.220;2022-09-16T19:00:05;26.80;71.50
7362;DHT22;3721;44.490;11.220;2022-09-16T19:02:31;26.80;71.60
7362;DHT22;3721;44.490;11.220;2022-09-16T19:04:57;26.80;71.70
7362;DHT22;3721;44.490;11.220;2022-09-16T19:07:23;26.70;71.50
7362;DHT22;3721;44.490;11.220;2022-09-16T19:09:51;26.70;71.50
7362;DHT22;3721;44.490;11.220;2022-09-16T19:12:20;26.70;71.70
7362;DHT22;3721;44.490;11.220;2022-09-16T19:14:46;26.70;71.80
7362;DHT22;3721;44.490;11.220;2022-09-16T19:17:12;26.60;71.60
7362;DHT22;3721;44.490;11.220;2022-09-16T19:19:38;26.60;71.60
7362;DHT22;3721;44.490;11.220;2022-09-16T19:22:04;26.60;71.60
7362;DHT22;3721;44.490;11.220;2022-09-16T19:24:30;26.60;71.90
7362;DHT22;3721;44.490;11.220;2022-09-16T19:26:56;26.50;71.70
7362;DHT22;3721;44.490;11.220;2022-09-16T19:29:22;26.50;71.70
7362;DHT22;3721;44.490;11.220;2022-09-16T19:31:50;26.50;71.60
7362;DHT22;3721;44.490;11.220;2022-09-16T19:34:22;26.50;71.70
7362;DHT22;3721;44.490;11.220;2022-09-16T19:36:48;26.40;71.40
7362;DHT22;3721;44.490;11.220;2022-09-16T19:39:14;26.40;72.00